Flight Track Log - Related Links

Times and Time Zones

All times are in EDT time to prevent confusion due to time zone crossing. See the SWA2624 flight status page for this flight to view local times or setup timezone preferences in your user account.

Time Position Orientation Groundspeed Altitude Reporting Facility
EDT Latitude Longitude Course Direction KTS MPH feet Rate Location/Type
Thu 07:53:36 PM 39.1167 -76.6667 303° West 189 217 2,300  Level Potomac TRACON
Thu 07:54:36 PM 39.1500 -76.7333 303° West 240 276 5,000 2,350 Climbing Potomac TRACON
Thu 07:55:36 PM 39.1833 -76.8167 297° West 262 302 7,000 2,357 Climbing Potomac TRACON
Thu 07:57:24 PM 39.2117 -76.9819 283° West 264 304 11,600 2,321 Climbing Washington Center
Thu 07:58:24 PM 39.2125 -77.1025 271° West 297 342 13,500 2,300 Climbing Washington Center
Thu 07:59:24 PM 39.1589 -77.2003 235° Southwest 296 341 16,200 2,600 Climbing Washington Center
Thu 08:00:24 PM 39.0850 -77.2842 221° Southwest 315 362 18,700 2,450 Climbing Washington Center
Thu 08:01:24 PM 39.0517 -77.4144 252° West 344 396 21,100 2,150 Climbing Washington Center
Thu 08:02:24 PM 39.0228 -77.5339 253° West 382 440 23,000 1,900 Climbing Washington Center
Thu 08:03:24 PM 38.9847 -77.6881 252° West 400 460 24,900 1,750 Climbing Washington Center
Thu 08:04:24 PM 38.9533 -77.8153 252° West 411 473 26,500 1,450 Climbing Washington Center
Thu 08:05:24 PM 38.9172 -77.9633 253° West 435 501 27,800 1,450 Climbing Washington Center
Thu 08:06:24 PM 38.8786 -78.1117 252° West 442 509 29,400 1,750 Climbing Washington Center
Thu 08:07:24 PM 38.8544 -78.2628 258° West 437 503 31,300 1,700 Climbing Washington Center
Thu 08:08:24 PM 38.8531 -78.4200 269° West 431 496 32,800 1,400 Climbing Washington Center
Thu 08:09:24 PM 38.8514 -78.5719 269° West 431 496 34,100 1,250 Climbing Washington Center
Thu 08:10:24 PM 38.8497 -78.7264 269° West 431 496 35,300 950 Climbing Washington Center
Thu 08:11:24 PM 38.8475 -78.8808 269° West 436 502 36,000 350 Climbing Washington Center
Thu 08:12:24 PM 38.8453 -79.0353 269° West 436 502 36,000  Level Washington Center
Thu 08:13:24 PM 38.8431 -79.1872 269° West 436 502 36,000  Level Washington Center
Thu 08:14:24 PM 38.8425 -79.3417 270° West 441 507 36,000  Level Washington Center
Thu 08:15:23 PM 38.8397 -79.4936 269° West 436 502 36,000  Level Washington Center
Thu 08:16:24 PM 38.8344 -79.6506 268° West 437 503 36,000  Level Washington Center
Thu 08:17:24 PM 38.8308 -79.8128 268° West 437 503 36,000  Level Washington Center
Thu 08:18:24 PM 38.8256 -79.9619 267° West 431 496 36,000  Level Washington Center
Thu 08:20:06 PM 38.8167 -80.1983 267° West 412 474 36,000  Level Indianapolis Center
Thu 08:21:08 PM 38.8125 -80.3447 268° West 411 473 36,000  Level Indianapolis Center
Thu 08:22:09 PM 38.8092 -80.4906 268° West 409 471 36,000  Level Indianapolis Center
Thu 08:23:10 PM 38.8058 -80.6394 268° West 416 479 36,000  Level Indianapolis Center
Thu 08:24:12 PM 38.8000 -80.7847 267° West 409 471 36,000 195 Level Indianapolis Center
Thu 08:25:13 PM 38.7958 -80.9306 268° West 410 472 36,400 927 Climbing Indianapolis Center
Thu 08:26:15 PM 38.7911 -81.0736 268° West 402 463 37,900 780 Climbing Indianapolis Center
Thu 08:27:16 PM 38.7853 -81.2419 268° West 397 457 38,000 49 Climbing Indianapolis Center
Thu 08:28:18 PM 38.7814 -81.3822 268° West 398 458 38,000  Level Indianapolis Center
Thu 08:29:19 PM 38.7742 -81.5331 267° West 408 470 38,000  Level Indianapolis Center
Thu 08:30:21 PM 38.7683 -81.6761 267° West 404 465 38,000  Level Indianapolis Center
Thu 08:31:22 PM 38.7644 -81.8072 268° West 407 468 38,000  Level Indianapolis Center
Thu 08:32:24 PM 38.7572 -81.9772 267° West 402 463 38,000  Level Indianapolis Center
Thu 08:33:25 PM 38.7511 -82.1156 267° West 394 453 38,000  Level Indianapolis Center
Thu 08:34:27 PM 38.7458 -82.2514 267° West 384 442 38,000  Level Indianapolis Center
Thu 08:35:28 PM 38.7411 -82.3889 268° West 386 444 38,000  Level Indianapolis Center
Thu 08:36:30 PM 38.7358 -82.5239 267° West 381 438 38,000  Level Indianapolis Center
Thu 08:37:31 PM 38.7294 -82.6611 267° West 386 444 38,000  Level Indianapolis Center
Thu 08:38:33 PM 38.7236 -82.7978 267° West 386 444 38,000  Level Indianapolis Center
Thu 08:39:34 PM 38.7175 -82.9369 267° West 389 448 38,000  Level Indianapolis Center
Thu 08:40:36 PM 38.7122 -83.0750 267° West 388 447 38,000  Level Indianapolis Center
Thu 08:41:38 PM 38.7047 -83.2267 266° West 391 450 38,000 -49 Level Indianapolis Center
Thu 08:42:39 PM 38.6978 -83.3667 266° West 390 449 37,900 -49 Descending Indianapolis Center
Thu 08:43:41 PM 38.6906 -83.5075 266° West 393 452 37,900  Level Indianapolis Center
Thu 08:44:42 PM 38.6844 -83.6478 267° West 390 449 37,900 49 Level Indianapolis Center
Thu 08:45:44 PM 38.6753 -83.8089 266° West 386 444 38,000 49 Climbing Indianapolis Center
Thu 08:46:45 PM 38.6692 -83.9483 267° West 388 447 38,000  Level Indianapolis Center
Thu 08:47:47 PM 38.6617 -84.0847 266° West 383 441 38,000  Level Indianapolis Center
Thu 08:48:48 PM 38.6536 -84.2200 266° West 379 436 38,000  Level Indianapolis Center
Thu 08:49:50 PM 38.6508 -84.3550 269° West 377 434 38,000  Level Indianapolis Center
Thu 08:50:51 PM 38.6597 -84.4939 275° West 385 443 38,000  Level Indianapolis Center
Thu 08:51:53 PM 38.6681 -84.6328 274° West 378 435 38,000  Level Indianapolis Center
Thu 08:52:54 PM 38.6747 -84.7678 274° West 377 434 38,000  Level Indianapolis Center
Thu 08:53:55 PM 38.6839 -84.9092 275° West 382 440 38,000  Level Indianapolis Center
Thu 08:54:57 PM 38.6903 -85.0464 273° West 384 442 38,000  Level Indianapolis Center
Thu 08:55:58 PM 38.6967 -85.1825 273° West 383 441 38,000  Level Indianapolis Center
Thu 08:56:59 PM 38.7053 -85.3186 275° West 384 442 38,000  Level Indianapolis Center
Thu 08:58:01 PM 38.7125 -85.4525 274° West 376 433 38,000  Level Indianapolis Center
Thu 08:59:02 PM 38.7183 -85.5850 273° West 372 428 38,000  Level Indianapolis Center
Thu 09:00:03 PM 38.7256 -85.7161 274° West 369 425 38,000  Level Indianapolis Center
Thu 09:01:04 PM 38.7319 -85.8494 274° West 374 430 38,000  Level Indianapolis Center
Thu 09:02:06 PM 38.7383 -85.9808 274° West 369 425 38,000  Level Indianapolis Center
Thu 09:03:07 PM 38.7447 -86.1111 274° West 368 423 38,000  Level Indianapolis Center
Thu 09:04:08 PM 38.7514 -86.2667 273° West 364 419 38,000  Level Indianapolis Center
Thu 09:05:09 PM 38.7572 -86.3964 273° West 364 419 38,000  Level Indianapolis Center
Thu 09:06:11 PM 38.7628 -86.5247 273° West 362 417 38,000  Level Indianapolis Center
Thu 09:07:12 PM 38.7675 -86.6544 273° West 364 419 38,000  Level Indianapolis Center
Thu 09:08:13 PM 38.7733 -86.7842 273° West 366 421 38,000  Level Indianapolis Center
Thu 09:09:14 PM 38.7783 -86.9156 273° West 368 423 38,000  Level Indianapolis Center
Thu 09:10:15 PM 38.7831 -87.0469 273° West 370 426 38,000  Level Indianapolis Center
Thu 09:11:17 PM 38.7883 -87.1781 273° West 370 426 38,000  Level Indianapolis Center
Thu 09:12:18 PM 38.7931 -87.3078 273° West 366 421 38,000  Level Indianapolis Center
Thu 09:13:19 PM 38.7972 -87.4381 272° West 366 421 38,000  Level Indianapolis Center
Thu 09:14:20 PM 38.8014 -87.5678 272° West 364 419 38,000  Level Indianapolis Center
Thu 09:15:22 PM 38.8061 -87.7239 272° West 365 420 38,000  Level Indianapolis Center
Thu 09:16:23 PM 38.8100 -87.8547 272° West 365 420 38,000  Level Indianapolis Center
Thu 09:17:08 PM 38.8133 -87.9336 273° West 365 420 38,000  Level Kansas City Center
Thu 09:18:09 PM 38.8167 -88.0642 272° West 365 420 38,000  Level Kansas City Center
Thu 09:19:13 PM 38.8194 -88.1950 272° West 365 420 38,000  Level Kansas City Center
Thu 09:20:13 PM 38.8242 -88.3528 272° West 368 423 38,000  Level Kansas City Center
Thu 09:21:14 PM 38.8258 -88.4867 271° West 373 429 38,000  Level Kansas City Center
Thu 09:22:17 PM 38.8306 -88.6194 273° West 372 428 38,000  Level Kansas City Center
Thu 09:23:18 PM 38.8328 -88.7456 271° West 371 427 38,000  Level Kansas City Center
Thu 09:24:20 PM 38.8372 -88.8764 273° West 371 427 38,000  Level Kansas City Center
Thu 09:25:20 PM 38.8392 -89.0217 271° West 370 426 38,000  Level Kansas City Center
Thu 09:26:23 PM 38.8431 -89.1633 272° West 370 426 38,000  Level Kansas City Center
Thu 09:27:23 PM 38.8447 -89.2944 271° West 369 425 38,000  Level Kansas City Center
Thu 09:28:24 PM 38.8472 -89.4264 271° West 371 427 38,000  Level Kansas City Center
Thu 09:29:27 PM 38.8497 -89.5672 271° West 369 425 38,000  Level Kansas City Center
Thu 09:30:28 PM 38.8519 -89.6903 271° West 369 425 38,000  Level Kansas City Center
Thu 09:31:29 PM 38.8531 -89.8217 271° West 370 426 38,000  Level Kansas City Center
Thu 09:32:30 PM 38.8556 -89.9531 271° West 371 427 38,000  Level Kansas City Center
Thu 09:33:30 PM 38.8581 -90.0831 271° West 368 423 38,000  Level Kansas City Center
Thu 09:34:34 PM 38.8575 -90.2167 270° West 371 427 38,000  Level Kansas City Center
Thu 09:35:36 PM 38.8636 -90.3811 273° West 379 436 38,000  Level Kansas City Center
Thu 09:36:35 PM 38.8603 -90.5158 268° West 379 436 38,000  Level Kansas City Center
Thu 09:37:39 PM 38.8397 -90.6436 258° West 364 419 38,000  Level Kansas City Center
Thu 09:38:38 PM 38.8253 -90.7617 261° West 366 421 38,000  Level Kansas City Center
Thu 09:39:42 PM 38.8081 -90.8903 260° West 368 423 38,000  Level Kansas City Center
Thu 09:40:42 PM 38.7917 -91.0203 261° West 370 426 38,000  Level Kansas City Center
Thu 09:41:45 PM 38.7711 -91.1767 260° West 372 428 38,000  Level Kansas City Center
Thu 09:42:44 PM 38.7539 -91.3083 261° West 374 430 38,000  Level Kansas City Center
Thu 09:43:47 PM 38.7356 -91.4394 260° West 376 433 38,000  Level Kansas City Center
Thu 09:44:49 PM 38.7175 -91.5725 260° West 379 436 38,000  Level Kansas City Center
Thu 09:45:50 PM 38.6964 -91.7222 260° West 379 436 38,000  Level Kansas City Center
Thu 09:46:49 PM 38.6783 -91.8553 260° West 380 437 38,000  Level Kansas City Center
Thu 09:47:52 PM 38.6589 -91.9836 259° West 372 428 38,000  Level Kansas City Center
Thu 09:48:54 PM 38.6403 -92.1119 260° West 368 423 38,000  Level Kansas City Center
Thu 09:49:55 PM 38.6211 -92.2411 259° West 368 423 38,000  Level Kansas City Center
Thu 09:50:56 PM 38.6022 -92.3683 259° West 367 422 38,000  Level Kansas City Center
Thu 09:51:58 PM 38.5839 -92.4936 259° West 361 415 38,000  Level Kansas City Center
Thu 09:53:00 PM 38.5647 -92.6200 259° West 362 417 38,000  Level Kansas City Center
Thu 09:54:00 PM 38.5458 -92.7478 259° West 364 419 38,000  Level Kansas City Center
Thu 09:55:01 PM 38.5231 -92.8997 259° West 364 419 38,000  Level Kansas City Center
Thu 09:56:02 PM 38.5047 -93.0253 259° West 362 417 38,000  Level Kansas City Center
Thu 09:57:04 PM 38.4850 -93.1506 259° West 360 414 38,000  Level Kansas City Center
Thu 09:58:05 PM 38.4664 -93.2767 259° West 361 415 38,000  Level Kansas City Center
Thu 09:59:07 PM 38.4469 -93.4022 259° West 361 415 38,000  Level Kansas City Center
Thu 10:00:08 PM 38.4272 -93.5283 259° West 362 417 38,000  Level Kansas City Center
Thu 10:01:09 PM 38.4072 -93.6556 259° West 364 419 38,000  Level Kansas City Center
Thu 10:02:12 PM 38.3881 -93.7814 259° West 362 417 38,000  Level Kansas City Center
Thu 10:03:13 PM 38.3664 -93.9075 258° West 364 419 38,000  Level Kansas City Center
Thu 10:04:15 PM 38.3469 -94.0331 259° West 362 417 38,000  Level Kansas City Center
Thu 10:05:16 PM 38.3253 -94.1667 258° West 363 418 38,000  Level Kansas City Center
Thu 10:06:17 PM 38.3031 -94.3058 259° West 361 415 38,000  Level Kansas City Center
Thu 10:07:18 PM 38.2822 -94.4264 258° West 361 415 38,000  Level Kansas City Center
Thu 10:08:19 PM 38.2625 -94.5478 258° West 363 418 38,000  Level Kansas City Center
Thu 10:09:20 PM 38.2406 -94.6900 259° West 365 420 38,000  Level Kansas City Center
Thu 10:10:20 PM 38.2214 -94.8147 259° West 368 423 38,000  Level Kansas City Center
Thu 10:11:22 PM 38.2006 -94.9403 258° West 373 429 38,000  Level Kansas City Center
Thu 10:12:22 PM 38.1778 -95.0861 259° West 376 433 38,000  Level Kansas City Center
Thu 10:13:25 PM 38.1572 -95.2119 258° West 377 434 38,000  Level Kansas City Center
Thu 10:14:25 PM 38.1328 -95.3547 258° West 372 428 38,000  Level Kansas City Center
Thu 10:15:26 PM 38.1114 -95.4789 258° West 374 430 38,000  Level Kansas City Center
Thu 10:16:27 PM 38.0900 -95.6025 258° West 374 430 38,000  Level Kansas City Center
Thu 10:17:30 PM 38.0658 -95.7447 258° West 370 426 38,000  Level Kansas City Center
Thu 10:18:32 PM 38.0436 -95.8667 257° West 369 425 38,000  Level Kansas City Center
Thu 10:19:31 PM 38.0239 -95.9878 258° West 367 422 38,000  Level Kansas City Center
Thu 10:20:32 PM 38.0017 -96.1233 258° West 370 426 38,000  Level Kansas City Center
Thu 10:21:33 PM 37.9803 -96.2531 258° West 376 433 38,000  Level Kansas City Center
Thu 10:22:37 PM 37.9592 -96.3819 258° West 374 430 38,000  Level Kansas City Center
Thu 10:23:36 PM 37.9364 -96.5092 257° West 373 429 38,000  Level Kansas City Center
Thu 10:24:37 PM 37.9150 -96.6383 258° West 374 430 38,000  Level Kansas City Center
Thu 10:25:40 PM 37.8936 -96.7681 258° West 375 432 38,000  Level Kansas City Center
Thu 10:26:41 PM 37.8717 -96.8964 258° West 373 429 38,000  Level Kansas City Center
Thu 10:27:40 PM 37.8431 -97.0519 257° West 377 434 38,000  Level Kansas City Center
Thu 10:28:44 PM 37.8192 -97.1839 257° West 384 442 38,000  Level Kansas City Center
Thu 10:29:44 PM 37.7950 -97.3175 257° West 388 447 38,000  Level Kansas City Center
Thu 10:30:45 PM 37.7703 -97.4508 257° West 389 448 38,000  Level Kansas City Center
Thu 10:31:45 PM 37.7433 -97.5931 257° West 391 450 38,000  Level Kansas City Center
Thu 10:32:49 PM 37.7186 -97.7258 257° West 388 447 38,000  Level Kansas City Center
Thu 10:33:49 PM 37.6936 -97.8597 257° West 390 449 38,000  Level Kansas City Center
Thu 10:34:51 PM 37.6681 -97.9917 256° West 388 447 38,000  Level Kansas City Center
Thu 10:35:51 PM 37.6406 -98.1264 256° West 389 448 38,000  Level Kansas City Center
Thu 10:36:53 PM 37.6164 -98.2528 256° West 386 444 38,000  Level Kansas City Center
Thu 10:37:54 PM 37.5900 -98.3858 256° West 388 447 38,000  Level Kansas City Center
Thu 10:38:54 PM 37.5633 -98.5189 256° West 390 449 38,000  Level Kansas City Center
Thu 10:39:55 PM 37.5369 -98.6519 256° West 390 449 38,000  Level Kansas City Center
Thu 10:40:56 PM 37.5094 -98.7856 255° West 392 451 38,000  Level Kansas City Center
Thu 10:41:57 PM 37.4822 -98.9206 256° West 395 455 38,000  Level Kansas City Center
Thu 10:42:58 PM 37.4489 -99.0828 256° West 397 457 38,000  Level Kansas City Center
Thu 10:44:01 PM 37.4206 -99.2175 255° West 398 458 38,000  Level Kansas City Center
Thu 10:45:02 PM 37.3933 -99.3519 256° West 398 458 38,000  Level Kansas City Center
Thu 10:46:02 PM 37.3631 -99.4906 255° West 403 464 38,000  Level Kansas City Center
Thu 10:47:06 PM 37.3361 -99.6214 256° West 404 465 38,000  Level Kansas City Center
Thu 10:48:07 PM 37.3031 -99.7750 255° West 406 467 38,000  Level Kansas City Center
Thu 10:49:06 PM 37.2553 -99.8992 244° Southwest 408 470 38,000  Level Kansas City Center
Thu 10:50:07 PM 37.2056 -100.0242 243° Southwest 414 476 38,000  Level Kansas City Center
Thu 10:51:08 PM 37.1464 -100.1681 243° Southwest 415 478 38,000  Level Kansas City Center
Thu 10:52:12 PM 37.0964 -100.2892 243° Southwest 411 473 38,000  Level Kansas City Center
Thu 10:53:12 PM 37.0375 -100.4308 243° Southwest 409 471 38,000  Level Kansas City Center
Thu 10:54:13 PM 36.9858 -100.5525 242° Southwest 410 472 38,000  Level Kansas City Center
Thu 10:55:14 PM 36.9347 -100.6736 242° Southwest 411 473 38,000  Level Kansas City Center
Thu 10:56:15 PM 36.8750 -100.8139 242° Southwest 409 471 38,000  Level Kansas City Center
Thu 10:57:16 PM 36.8364 -100.9417 249° West 414 476 38,000  Level Kansas City Center
Thu 10:58:17 PM 36.8064 -101.0719 254° West 410 472 38,000  Level Kansas City Center
Thu 10:59:19 PM 36.7714 -101.2250 254° West 410 472 38,000  Level Kansas City Center
Thu 11:00:23 PM 36.7422 -101.3533 254° West 405 466 38,000  Level Kansas City Center
Thu 11:01:08 PM 36.7181 -101.4606 254° West 405 466 38,000  Level Albuquerque Center
Thu 11:02:10 PM 36.6828 -101.6083 253° West 401 461 38,000  Level Albuquerque Center
Thu 11:03:11 PM 36.6522 -101.7353 253° West 399 459 38,000  Level Albuquerque Center
Thu 11:04:13 PM 36.6228 -101.8636 254° West 402 463 38,000  Level Albuquerque Center
Thu 11:05:14 PM 36.5894 -102.0061 254° West 403 464 38,000  Level Albuquerque Center
Thu 11:06:16 PM 36.5569 -102.1394 253° West 404 465 38,000  Level Albuquerque Center
Thu 11:07:17 PM 36.5250 -102.2703 253° West 401 461 38,000  Level Albuquerque Center
Thu 11:08:19 PM 36.4931 -102.4039 253° West 403 464 38,000  Level Albuquerque Center
Thu 11:09:20 PM 36.4550 -102.5633 254° West 404 465 38,000  Level Albuquerque Center
Thu 11:10:21 PM 36.4219 -102.6975 253° West 406 467 38,000  Level Albuquerque Center
Thu 11:11:23 PM 36.3889 -102.8297 253° West 405 466 38,000  Level Albuquerque Center
Thu 11:12:24 PM 36.3561 -102.9675 254° West 401 461 38,000  Level Albuquerque Center
Thu 11:13:26 PM 36.3231 -103.1003 253° West 399 459 38,000  Level Albuquerque Center
Thu 11:14:27 PM 36.2903 -103.2317 253° West 398 458 38,000  Level Albuquerque Center
Thu 11:15:29 PM 36.2583 -103.3661 254° West 401 461 38,000  Level Albuquerque Center
Thu 11:16:30 PM 36.2256 -103.4986 253° West 400 460 38,000  Level Albuquerque Center
Thu 11:17:32 PM 36.1919 -103.6297 252° West 398 458 38,000  Level Albuquerque Center
Thu 11:18:33 PM 36.1586 -103.7633 253° West 401 461 38,000  Level Albuquerque Center
Thu 11:19:35 PM 36.1233 -103.8953 252° West 403 464 38,000  Level Albuquerque Center
Thu 11:20:36 PM 36.0822 -104.0497 252° West 403 464 38,000  Level Albuquerque Center
Thu 11:21:38 PM 36.0492 -104.1836 253° West 405 466 38,000  Level Albuquerque Center
Thu 11:22:39 PM 36.0136 -104.3178 252° West 408 470 38,000  Level Albuquerque Center
Thu 11:23:41 PM 35.9783 -104.4531 252° West 411 473 38,000  Level Albuquerque Center
Thu 11:24:42 PM 35.9442 -104.5864 252° West 409 471 38,000  Level Albuquerque Center
Thu 11:25:44 PM 35.9094 -104.7192 252° West 405 466 38,000  Level Albuquerque Center
Thu 11:26:45 PM 35.8719 -104.8558 251° West 414 476 38,000  Level Albuquerque Center
Thu 11:27:47 PM 35.8367 -104.9903 252° West 414 476 38,000  Level Albuquerque Center
Thu 11:28:49 PM 35.8003 -105.1236 251° West 411 473 38,000  Level Albuquerque Center
Thu 11:29:50 PM 35.7600 -105.2778 252° West 406 467 38,000 -1,268 Level Albuquerque Center
Thu 11:30:52 PM 35.7222 -105.4086 250° West 404 465 35,400 -2,537 Descending Albuquerque Center
Thu 11:31:53 PM 35.6914 -105.5422 254° West 404 465 32,800 -2,244 Descending Albuquerque Center
Thu 11:32:55 PM 35.6844 -105.6564 266° West 392 451 30,800 -2,000 Descending Albuquerque Center
Thu 11:33:56 PM 35.6725 -105.7828 263° West 377 434 28,700 -2,293 Descending Albuquerque Center
Thu 11:34:58 PM 35.6592 -105.9344 264° West 373 429 26,100 -2,293 Descending Albuquerque Center
Thu 11:35:59 PM 35.6450 -106.0644 262° West 382 440 24,000 -2,049 Descending Albuquerque Center
Thu 11:37:01 PM 35.6328 -106.1928 263° West 381 438 21,900 -1,984 Descending Albuquerque Center
Thu 11:38:03 PM 35.6211 -106.3178 263° West 373 429 19,900 -1,902 Descending Albuquerque Center
Thu 11:39:04 PM 35.6089 -106.4336 263° West 352 405 18,000 -1,805 Descending Albuquerque Center
Thu 11:40:06 PM 35.5969 -106.5469 263° West 341 392 16,200 -2,047 Descending Albuquerque Center
Thu 11:40:29 PM 35.5581 -106.5942 225° Southwest 355 409 15,100 -1,932 Descending Albuquerque Center
Thu 11:41:05 PM 35.5097 -106.6222 205° Southwest 372 428 14,300 -1,485 Descending Albuquerque Center
Thu 11:42:06 PM 35.4181 -106.6722 204° Southwest 331 381 12,700 -1,574 Descending Albuquerque Center
Thu 11:43:07 PM 35.3400 -106.7131 203° Southwest 298 343 11,100 -1,388 Descending Albuquerque Center
Thu 11:44:07 PM 35.2661 -106.6933 168° South 296 341 9,900 -1,046 Descending Albuquerque Center
Thu 11:44:56 PM 35.2383 -106.6328 119° Southeast 255 293 9,200 -818 Descending Albuquerque Center
Thu 11:45:13 PM 35.2292 -106.6125 119° Southeast 280 322 9,000 -100 Descending Albuquerque Center
Thu 11:45:56 PM 35.1933 -106.5819 145° Southeast 209 241 9,100  Climbing Albuquerque Center
Thu 11:46:15 PM 35.1800 -106.5728 151° Southeast 236 272 9,000 -787 Descending Albuquerque Center
Thu 11:46:57 PM 35.1361 -106.5475 155° Southeast 208 239 8,300 -984 Descending Albuquerque Center
Thu 11:47:16 PM 35.1264 -106.5378 141° Southeast 222 255 8,000 -1,100 Descending Albuquerque Center
Thu 11:47:57 PM 35.0856 -106.5139 154° Southeast 204 235 7,200 -1,065 Descending Albuquerque Center
Thu 11:48:18 PM 35.0753 -106.5058 147° Southeast 214 246 6,900 -885 Descending Albuquerque Center
Thu 11:48:58 PM 35.0450 -106.5269 210° Southwest 152 175 6,300 -885 Descending Albuquerque Center
Thu 11:49:19 PM 35.0439 -106.5339 259° West 175 201 6,000 -787 Descending Albuquerque Center
Thu 11:49:59 PM 35.0428 -106.5744 268° West 132 152 5,500 -774 Descending Albuquerque Center
Thu 11:50:21 PM 35.0439 -106.5819 280° West 152 175 5,200 -818 Descending Albuquerque Center

Login

Don't have an account? Register now (free) for customized features, flight alerts, and more!